Time;durP1;ratioP1;P1;durP2;ratioP2;P2;SDS_P1;SDS_P2;PMS_P1;PMS_P2;Temp;Humidity;BMP_temperature;BMP_pressure;BME280_temperature;BME280_humidity;BME280_pressure;Samples;Min_cycle;Max_cycle;Signal;HPM_P1;HPM_P2
2022/02/21 00:00:55;;;;;;;11.63;7.75;;;;;;;10.75;67.27;100972.63;5029877;27;102490;-50
2022/02/21 00:03:22;;;;;;;12.45;7.78;;;;;;;10.75;67.53;100967.19;5024453;27;106860;-50
2022/02/21 00:05:48;;;;;;;11.70;7.65;;;;;;;10.76;67.64;100974.25;5025267;27;103846;-50
2022/02/21 00:08:14;;;;;;;10.82;7.72;;;;;;;10.75;67.25;100967.19;5037060;27;102589;-50
2022/02/21 00:10:45;;;;;;;14.13;7.90;;;;;;;10.74;67.80;100965.50;5037969;27;102014;-50
2022/02/21 00:13:11;;;;;;;12.32;7.82;;;;;;;10.75;67.40;100966.38;5031955;27;102943;-49
2022/02/21 00:15:38;;;;;;;13.15;8.65;;;;;;;10.75;67.84;100964.44;5045961;27;103908;-50
2022/02/21 00:18:06;;;;;;;10.98;7.88;;;;;;;10.75;67.60;100959.00;5036929;27;102536;-48
2022/02/21 00:20:33;;;;;;;12.75;8.07;;;;;;;10.75;67.31;100961.72;5035342;27;102588;-49
2022/02/21 00:23:02;;;;;;;10.20;7.65;;;;;;;10.74;67.78;100965.50;5040720;27;103658;-49
2022/02/21 00:25:29;;;;;;;10.82;7.55;;;;;;;10.75;67.56;100966.38;5047401;27;103873;-49
2022/02/21 00:27:55;;;;;;;9.70;7.25;;;;;;;10.75;67.50;100967.19;5030114;27;102843;-48
2022/02/21 00:30:24;;;;;;;10.23;7.00;;;;;;;10.74;67.73;100960.06;5026056;27;102484;-49
2022/02/21 00:32:51;;;;;;;10.85;7.70;;;;;;;10.74;67.85;100965.50;5025878;27;103474;-49
2022/02/21 00:35:18;;;;;;;10.32;7.28;;;;;;;10.74;67.85;100968.25;5026489;27;103609;-49
2022/02/21 00:37:45;;;;;;;11.77;7.85;;;;;;;10.74;67.34;100968.25;5027005;27;103886;-48
2022/02/21 00:40:12;;;;;;;9.82;7.18;;;;;;;10.74;67.37;100960.06;5035763;27;102629;-48
2022/02/21 00:42:43;;;;;;;11.93;7.85;;;;;;;10.75;67.42;100961.72;5026066;27;102634;-48
2022/02/21 00:45:10;;;;;;;10.27;7.22;;;;;;;10.74;67.50;100962.78;5024696;27;103962;-49
2022/02/21 00:47:39;;;;;;;11.75;8.00;;;;;;;10.73;67.71;100955.72;5042428;27;103742;-50
2022/02/21 00:50:07;;;;;;;;;;;;;;;10.74;67.58;100959.25;5049280;27;102634;-48
2022/02/21 00:52:35;;;;;;;11.40;7.40;;;;;;;10.74;67.29;100954.63;5055296;27;104347;-48
2022/02/21 00:55:02;;;;;;;12.00;7.60;;;;;;;10.74;67.80;100959.25;5029342;27;104067;-49
2022/02/21 00:57:28;;;;;;;9.52;7.32;;;;;;;10.74;67.80;100949.19;5026572;27;102236;-48
2022/02/21 00:59:54;;;;;;;9.57;7.28;;;;;;;10.72;67.30;100945.94;5025075;27;102803;-48
2022/02/21 01:02:21;;;;;;;11.55;7.25;;;;;;;10.74;67.89;100954.63;5028065;27;102608;-48
2022/02/21 01:04:47;;;;;;;11.93;7.13;;;;;;;10.74;67.23;100949.19;5026620;27;103754;-48
2022/02/21 01:07:13;;;;;;;10.38;7.53;;;;;;;10.74;67.80;100948.38;5030943;27;103127;-49
2022/02/21 01:09:42;;;;;;;10.55;7.63;;;;;;;10.74;67.70;100932.03;5023791;27;102029;-48
2022/02/21 01:12:08;;;;;;;11.38;8.20;;;;;;;10.74;67.15;100935.56;5027613;27;102447;-48
2022/02/21 01:14:36;;;;;;;11.05;7.32;;;;;;;10.72;67.43;100945.94;5051373;27;104052;-48
2022/02/21 01:17:03;;;;;;;11.13;7.90;;;;;;;10.74;67.89;100943.75;5057303;27;102370;-48
2022/02/21 01:19:29;;;;;;;10.88;7.95;;;;;;;10.73;67.60;100947.56;5026245;27;102676;-49
2022/02/21 01:21:55;;;;;;;10.57;7.57;;;;;;;10.74;67.44;100940.19;5029508;27;102278;-49
2022/02/21 01:24:21;;;;;;;12.65;8.02;;;;;;;10.73;67.30;100938.56;5028353;27;103955;-48
2022/02/21 01:26:49;;;;;;;11.02;7.95;;;;;;;10.74;67.58;100932.84;5030161;27;102176;-48
2022/02/21 01:29:16;;;;;;;13.05;8.38;;;;;;;10.73;67.17;100931.22;5025558;27;102054;-48
2022/02/21 01:31:42;;;;;;;10.50;7.57;;;;;;;10.74;68.10;100929.31;5028552;27;102376;-49
2022/02/21 01:34:08;;;;;;;10.50;8.20;;;;;;;10.74;67.28;100930.13;5028712;27;103546;-49
2022/02/21 01:36:35;;;;;;;10.23;8.40;;;;;;;10.73;67.75;100924.97;5048020;27;102819;-49
2022/02/21 01:39:02;;;;;;;10.43;8.25;;;;;;;10.72;67.22;100924.16;5027027;28;102631;-49
2022/02/21 01:41:29;;;;;;;11.38;8.35;;;;;;;10.73;67.61;100923.06;5035843;27;104487;-48
2022/02/21 01:44:05;;;;;;;10.88;8.23;;;;;;;10.73;67.63;100925.78;5028229;27;103904;-49
2022/02/21 01:46:31;;;;;;;11.18;8.10;;;;;;;10.73;68.08;100925.78;5030981;27;102369;-48
2022/02/21 01:48:58;;;;;;;10.90;8.60;;;;;;;10.72;67.95;100924.16;5044813;27;102406;-50
2022/02/21 01:51:24;;;;;;;12.43;8.73;;;;;;;10.73;67.38;100925.78;5043348;27;102985;-51
2022/02/21 01:53:51;;;;;;;10.85;8.20;;;;;;;10.73;67.68;100922.25;5047242;27;104039;-50
2022/02/21 01:56:17;;;;;;;14.00;8.73;;;;;;;10.73;67.54;100923.06;5048406;27;101994;-50
2022/02/21 01:58:43;;;;;;;11.85;8.50;;;;;;;10.72;67.64;100918.72;5042540;27;102417;-50
2022/02/21 02:01:12;;;;;;;10.27;7.63;;;;;;;10.72;67.66;100921.44;5028275;27;102278;-50
2022/02/21 02:03:38;;;;;;;11.05;8.23;;;;;;;10.72;67.16;100918.72;5027649;27;103873;-51
2022/02/21 02:06:06;;;;;;;10.00;8.30;;;;;;;10.73;67.47;100927.69;5027988;27;102352;-51
2022/02/21 02:08:33;;;;;;;10.77;8.07;;;;;;;10.72;67.96;100924.16;5032604;27;103318;-51
2022/02/21 02:10:59;;;;;;;8.73;7.80;;;;;;;10.73;67.73;100931.22;5048329;27;102621;-52
2022/02/21 02:13:25;;;;;;;11.30;7.93;;;;;;;10.72;67.95;100934.22;5045471;27;104055;-49
2022/02/21 02:15:52;;;;;;;13.05;8.38;;;;;;;10.72;67.38;100929.59;5049629;27;102335;-48
2022/02/21 02:18:20;;;;;;;12.40;8.48;;;;;;;10.73;68.06;100936.66;5048256;27;102185;-48
2022/02/21 02:20:47;;;;;;;12.68;9.38;;;;;;;10.72;68.05;100935.03;5048802;27;102206;-49
2022/02/21 02:23:15;;;;;;;12.13;8.77;;;;;;;10.72;67.71;100926.88;5046325;27;103917;-48
2022/02/21 02:25:42;;;;;;;12.57;9.87;;;;;;;10.72;67.50;100929.59;5044997;27;102310;-48
2022/02/21 02:28:08;;;;;;;12.38;9.48;;;;;;;10.72;67.54;100934.22;5043906;27;102256;-49
2022/02/21 02:30:35;;;;;;;12.95;9.70;;;;;;;10.72;67.85;100934.22;5034311;27;102461;-48
2022/02/21 02:33:01;;;;;;;13.27;10.25;;;;;;;10.71;67.74;100944.28;5051914;27;104032;-48
2022/02/21 02:35:28;;;;;;;14.95;9.57;;;;;;;10.71;67.36;100935.28;5051083;27;102420;-48
2022/02/21 02:37:54;;;;;;;11.02;9.15;;;;;;;10.71;67.65;100933.41;5048130;27;102149;-49
2022/02/21 02:40:21;;;;;;;12.13;9.80;;;;;;;10.72;67.52;100945.94;5047312;27;102181;-49
2022/02/21 02:42:48;;;;;;;13.70;9.98;;;;;;;10.71;67.63;100933.41;5040946;27;106000;-48
2022/02/21 02:45:14;;;;;;;12.07;9.38;;;;;;;10.71;67.34;100938.84;5038867;27;102144;-49
2022/02/21 02:47:40;;;;;;;12.98;10.43;;;;;;;10.70;67.29;100937.19;5047768;27;102471;-49
2022/02/21 02:50:07;;;;;;;13.38;10.13;;;;;;;10.70;68.16;100937.19;5049248;27;102428;-49
2022/02/21 02:52:34;;;;;;;12.60;9.48;;;;;;;10.70;67.90;100942.63;5044914;27;103718;-48
2022/02/21 02:55:00;;;;;;;13.82;10.75;;;;;;;10.71;68.02;100938.84;5036419;27;102262;-48
2022/02/21 02:57:28;;;;;;;14.40;11.32;;;;;;;10.71;67.28;100933.41;5036999;27;103190;-49
2022/02/21 02:59:54;;;;;;;15.13;11.63;;;;;;;10.69;67.59;100929.31;5036357;27;102392;-49
2022/02/21 03:02:21;;;;;;;16.27;12.20;;;;;;;10.70;67.46;100942.63;5018039;28;103907;-49
2022/02/21 03:04:47;;;;;;;14.75;12.13;;;;;;;10.70;67.71;100937.19;5018266;28;102126;-49
2022/02/21 03:07:14;;;;;;;15.25;12.70;;;;;;;10.70;67.48;100945.38;5023145;27;102505;-48
2022/02/21 03:09:40;;;;;;;16.25;13.20;;;;;;;10.70;67.37;100936.38;5019442;28;102153;-49
2022/02/21 03:12:08;;;;;;;16.20;12.32;;;;;;;10.70;67.55;100931.75;5028126;27;105490;-49
2022/02/21 03:14:35;;;;;;;17.48;13.05;;;;;;;10.69;67.55;100930.13;5028437;27;102441;-48
2022/02/21 03:17:02;;;;;;;14.25;12.43;;;;;;;10.69;67.93;100935.56;5030476;27;103469;-48
2022/02/21 03:19:28;;;;;;;18.17;13.90;;;;;;;10.68;67.75;100938.56;5031202;27;102257;-48
2022/02/21 03:21:56;;;;;;;17.33;13.32;;;;;;;10.69;67.68;100941.00;5029299;27;104048;-49
2022/02/21 03:24:23;;;;;;;17.27;13.13;;;;;;;10.70;67.72;100941.81;5030361;27;102560;-48
2022/02/21 03:26:49;;;;;;;19.45;13.77;;;;;;;10.69;67.54;100941.00;5041170;27;102538;-49
2022/02/21 03:29:15;;;;;;;19.23;13.95;;;;;;;10.68;67.74;100933.94;5047749;27;102547;-48
2022/02/21 03:31:43;;;;;;;20.58;14.90;;;;;;;10.68;67.30;100939.38;5048332;27;103881;-49
2022/02/21 03:34:09;;;;;;;19.83;15.35;;;;;;;10.68;67.58;100944.81;5046991;27;102155;-49
2022/02/21 03:36:35;;;;;;;19.33;14.98;;;;;;;10.69;68.12;100940.19;5030284;27;102466;-49
2022/02/21 03:39:02;;;;;;;23.30;16.25;;;;;;;10.68;67.59;100927.69;5052400;27;102869;-49
2022/02/21 03:41:29;;;;;;;21.00;15.88;;;;;;;10.68;67.49;100931.22;5026925;27;103868;-50
2022/02/21 03:43:55;;;;;;;20.23;15.15;;;;;;;10.68;67.96;100936.66;5038871;27;102297;-49
2022/02/21 03:46:21;;;;;;;18.13;15.18;;;;;;;10.68;67.45;100928.50;5026450;27;102188;-48
2022/02/21 03:48:49;;;;;;;20.27;15.05;;;;;;;10.68;68.07;100931.22;5028194;27;102679;-49
2022/02/21 03:51:15;;;;;;;23.27;16.80;;;;;;;10.67;67.28;100932.28;5021264;27;103964;-50
2022/02/21 03:53:41;;;;;;;21.83;16.20;;;;;;;10.67;67.53;100929.56;5029187;27;102647;-49
2022/02/21 03:56:08;;;;;;;20.50;16.00;;;;;;;10.67;67.85;100932.28;5023154;27;102531;-49
2022/02/21 03:58:34;;;;;;;21.15;16.58;;;;;;;10.67;67.81;100918.66;5035313;27;102457;-50
2022/02/21 04:01:00;;;;;;;20.38;16.77;;;;;;;10.66;67.96;100925.22;5029405;27;104707;-49
2022/02/21 04:03:27;;;;;;;24.10;17.60;;;;;;;10.68;67.67;100927.69;5036024;27;102005;-49
2022/02/21 04:05:54;;;;;;;21.58;16.63;;;;;;;10.66;67.49;100917.03;5039783;27;102191;-49
2022/02/21 04:08:20;;;;;;;22.73;17.10;;;;;;;10.67;67.46;100915.94;5029858;27;102210;-49
2022/02/21 04:10:47;;;;;;;22.30;17.33;;;;;;;10.67;67.54;100909.69;5038080;27;103906;-49
2022/02/21 04:13:13;;;;;;;22.08;17.70;;;;;;;10.66;67.46;100908.06;5048917;27;102400;-51
2022/02/21 04:15:39;;;;;;;23.85;17.73;;;;;;;10.67;68.16;100905.06;5048171;27;102607;-49
2022/02/21 04:18:05;;;;;;;28.33;18.67;;;;;;;10.67;67.64;100901.53;5054307;27;102477;-49
2022/02/21 04:20:32;;;;;;;22.00;17.38;;;;;;;10.66;67.40;100898.00;5043244;27;104023;-49
2022/02/21 04:23:00;;;;;;;21.35;17.38;;;;;;;10.65;67.25;100901.81;5019312;27;102590;-49
2022/02/21 04:25:26;;;;;;;19.95;17.38;;;;;;;10.66;67.55;100903.44;5057149;27;102510;-52
2022/02/21 04:27:54;;;;;;;21.27;17.02;;;;;;;10.66;67.50;100898.00;5049602;27;102142;-49
2022/02/21 04:30:23;;;;;;;21.50;17.83;;;;;;;10.66;67.42;100889.81;5054175;27;103834;-48
2022/02/21 04:32:50;;;;;;;22.67;17.65;;;;;;;10.65;67.72;100890.91;5051905;27;102607;-49
2022/02/21 04:35:19;;;;;;;22.55;17.80;;;;;;;10.66;67.77;100889.81;5049281;27;103078;-49
2022/02/21 04:37:45;;;;;;;24.57;19.87;;;;;;;10.66;67.76;100889.81;5026822;27;102581;-49
2022/02/21 04:40:16;;;;;;;24.25;19.23;;;;;;;10.66;67.43;100895.25;5025628;27;105015;-51
2022/02/21 04:42:42;;;;;;;24.33;19.00;;;;;;;10.66;67.54;100889.00;5048889;27;102173;-51
2022/02/21 04:45:10;;;;;;;22.75;18.75;;;;;;;10.65;67.94;100884.66;5027957;27;103323;-48
2022/02/21 04:47:36;;;;;;;23.15;18.60;;;;;;;10.66;67.27;100886.28;5028069;27;102583;-49
2022/02/21 04:50:04;;;;;;;25.58;19.90;;;;;;;10.65;67.64;100882.75;5024414;27;105480;-48
2022/02/21 04:52:31;;;;;;;22.27;19.27;;;;;;;10.65;68.02;100885.47;5026241;27;102462;-49
2022/02/21 04:54:58;;;;;;;23.85;18.13;;;;;;;10.64;67.55;100878.41;5020762;27;102902;-48
2022/02/21 04:57:25;;;;;;;25.65;19.95;;;;;;;10.65;67.59;100885.47;5023482;27;102582;-48
2022/02/21 04:59:52;;;;;;;23.67;19.85;;;;;;;10.65;67.39;100892.81;5030272;27;104037;-49
2022/02/21 05:02:19;;;;;;;24.98;20.17;;;;;;;10.65;67.41;100896.38;5025932;27;102185;-48
2022/02/21 05:04:45;;;;;;;24.30;18.60;;;;;;;10.64;67.29;100900.19;5057170;27;105610;-49
2022/02/21 05:07:11;;;;;;;22.15;19.38;;;;;;;10.64;67.90;100894.72;5044685;27;102411;-49
2022/02/21 05:09:37;;;;;;;23.73;20.00;;;;;;;10.64;67.85;100899.34;5031841;27;103949;-50
2022/02/21 05:12:04;;;;;;;25.58;21.13;;;;;;;10.64;67.71;100893.88;5042437;27;102152;-49
2022/02/21 05:14:32;;;;;;;24.17;20.27;;;;;;;10.63;68.06;100898.53;5044544;27;102272;-49
2022/02/21 05:16:58;;;;;;;24.50;20.40;;;;;;;10.64;67.67;100902.91;5050066;27;102272;-49
2022/02/21 05:19:26;;;;;;;24.40;21.27;;;;;;;10.64;67.52;100897.47;5042100;27;104008;-48
2022/02/21 05:21:53;;;;;;;24.60;20.30;;;;;;;10.64;67.73;100905.63;5042603;27;102511;-49
2022/02/21 05:24:20;;;;;;;28.10;21.60;;;;;;;10.64;67.40;100905.63;5034735;27;102506;-49
2022/02/21 05:26:46;;;;;;;24.17;20.92;;;;;;;10.64;67.47;100905.63;5035100;27;102721;-48
2022/02/21 05:29:12;;;;;;;24.50;20.60;;;;;;;10.64;67.38;100905.63;5044228;27;103991;-48
2022/02/21 05:31:40;;;;;;;25.55;20.85;;;;;;;10.63;67.41;100909.41;5042627;27;102649;-49
2022/02/21 05:34:06;;;;;;;24.13;19.77;;;;;;;10.63;67.91;100914.84;5029050;27;102583;-48
2022/02/21 05:36:33;;;;;;;28.27;21.58;;;;;;;10.64;68.02;100916.50;5029156;27;102334;-48
2022/02/21 05:38:59;;;;;;;27.58;22.42;;;;;;;10.64;67.81;100921.09;5026768;27;104169;-48
2022/02/21 05:41:25;;;;;;;26.52;21.50;;;;;;;10.64;67.88;100927.41;5026037;27;102341;-49
2022/02/21 05:43:52;;;;;;;27.08;22.27;;;;;;;10.64;67.85;100919.22;5034719;27;102161;-49
2022/02/21 05:46:18;;;;;;;28.23;23.13;;;;;;;10.64;67.53;100918.38;5041881;27;102355;-48
2022/02/21 05:48:46;;;;;;;30.13;22.95;;;;;;;10.63;67.65;100914.84;5033243;27;103903;-48
2022/02/21 05:51:12;;;;;;;27.65;22.65;;;;;;;10.63;67.54;100912.13;5036620;27;102159;-49
2022/02/21 05:53:42;;;;;;;28.05;23.55;;;;;;;10.63;68.03;100912.13;5049785;27;102781;-49
2022/02/21 05:56:09;;;;;;;26.20;22.25;;;;;;;10.63;67.95;100908.59;5035276;27;103645;-49
2022/02/21 05:58:35;;;;;;;25.60;21.98;;;;;;;10.63;67.61;100912.13;5021201;27;104007;-49
2022/02/21 06:01:01;;;;;;;28.58;23.90;;;;;;;10.63;67.62;100909.41;5017280;27;103521;-48
2022/02/21 06:03:28;;;;;;;31.02;22.88;;;;;;;10.63;67.88;100906.69;5023166;27;104983;-49
2022/02/21 06:05:56;;;;;;;30.63;23.05;;;;;;;10.62;67.93;100902.34;5049763;27;102723;-50
2022/02/21 06:08:23;;;;;;;30.02;24.20;;;;;;;10.64;67.95;100894.72;5041778;27;104072;-49
2022/02/21 06:10:50;;;;;;;29.92;22.83;;;;;;;10.64;68.19;100900.19;5047791;27;102753;-48
2022/02/21 06:13:16;;;;;;;27.70;21.48;;;;;;;10.64;67.60;100908.34;5041294;27;102455;-48
2022/02/21 06:15:43;;;;;;;27.73;21.77;;;;;;;10.65;67.83;100904.53;5041955;27;102442;-49
2022/02/21 06:18:09;;;;;;;30.27;21.95;;;;;;;10.66;67.55;100898.00;5030059;27;104005;-49
2022/02/21 06:20:36;;;;;;;30.15;20.98;;;;;;;10.66;67.79;100895.25;5035871;27;102726;-49
2022/02/21 06:23:03;;;;;;;28.23;21.33;;;;;;;10.66;67.73;100895.25;5038860;27;102562;-48
2022/02/21 06:25:30;;;;;;;25.60;20.80;;;;;;;10.68;67.72;100889.56;5019904;27;102427;-48
2022/02/21 06:27:56;;;;;;;25.98;20.73;;;;;;;10.68;67.45;100895.84;5015865;27;103895;-49
2022/02/21 06:30:22;;;;;;;27.63;20.08;;;;;;;10.69;68.29;100883.84;5030319;27;102354;-48
2022/02/21 06:32:49;;;;;;;26.58;19.98;;;;;;;10.70;67.68;100896.38;5044733;27;102369;-48
2022/02/21 06:35:15;;;;;;;24.55;19.23;;;;;;;10.70;67.34;100887.38;5031603;27;102411;-49
2022/02/21 06:37:42;;;;;;;24.65;19.60;;;;;;;10.70;67.73;100885.47;5033783;27;103801;-48
2022/02/21 06:40:11;;;;;;;25.38;19.40;;;;;;;10.70;68.15;100877.31;5036713;27;102566;-49
2022/02/21 06:42:38;;;;;;;27.25;19.90;;;;;;;10.70;68.10;100882.75;5042499;27;102224;-48
2022/02/21 06:45:06;;;;;;;23.92;19.17;;;;;;;10.71;67.92;100881.69;5038899;27;102547;-48
2022/02/21 06:47:32;;;;;;;24.58;18.88;;;;;;;10.71;67.90;100881.69;5036067;27;104169;-48
2022/02/21 06:50:01;;;;;;;25.35;18.38;;;;;;;10.73;67.58;100878.69;5041625;27;102207;-48
2022/02/21 06:52:28;;;;;;;23.70;18.23;;;;;;;10.73;67.69;100875.97;5047424;27;102577;-51
2022/02/21 06:54:54;;;;;;;24.13;18.38;;;;;;;10.73;67.85;100876.78;5031482;27;102648;-51
2022/02/21 06:57:22;;;;;;;23.42;18.13;;;;;;;10.74;68.30;100877.59;5038613;27;103934;-51
2022/02/21 06:59:49;;;;;;;25.95;18.30;;;;;;;10.73;67.87;100876.78;5020409;27;102891;-50
2022/02/21 07:02:16;;;;;;;22.23;16.58;;;;;;;10.73;67.28;100884.94;5012517;27;103970;-50
2022/02/21 07:04:42;;;;;;;20.77;17.40;;;;;;;10.73;67.31;100887.66;5032751;27;102689;-50
2022/02/21 07:07:08;;;;;;;21.10;16.13;;;;;;;10.75;67.43;100880.06;5025924;27;103911;-51
2022/02/21 07:09:35;;;;;;;27.58;18.42;;;;;;;10.76;67.55;100876.25;5029230;27;102572;-50
2022/02/21 07:12:01;;;;;;;26.23;19.58;;;;;;;10.76;67.72;100873.53;5022946;27;102399;-51
2022/02/21 07:14:29;;;;;;;25.00;17.88;;;;;;;10.77;67.39;100877.88;5027159;27;102845;-51
2022/02/21 07:16:55;;;;;;;22.50;16.38;;;;;;;10.77;67.24;100866.97;5022145;27;103976;-51
2022/02/21 07:19:22;;;;;;;24.52;17.73;;;;;;;10.77;67.51;100866.97;5028183;27;102359;-51
2022/02/21 07:21:48;;;;;;;30.40;20.77;;;;;;;10.79;67.25;100870.28;5044108;27;102683;-51
2022/02/21 07:24:15;;;;;;;24.40;18.10;;;;;;;10.79;67.61;100878.44;5029389;27;102414;-50
2022/02/21 07:26:42;;;;;;;25.30;18.73;;;;;;;10.79;67.16;100878.44;5042249;27;103915;-50
2022/02/21 07:29:09;;;;;;;29.27;19.85;;;;;;;10.79;67.27;100875.72;5044719;27;102819;-51
2022/02/21 07:31:36;;;;;;;27.20;19.15;;;;;;;10.81;67.66;100884.41;5041572;27;102499;-50
2022/02/21 07:34:03;;;;;;;32.30;22.10;;;;;;;10.81;67.08;100868.06;5049570;27;102429;-51
2022/02/21 07:36:30;;;;;;;32.20;21.80;;;;;;;10.81;67.23;100865.34;5042944;27;103968;-50
2022/02/21 07:38:56;;;;;;;52.88;34.78;;;;;;;10.82;67.28;100858.84;5046622;27;102626;-48
2022/02/21 07:41:22;;;;;;;42.53;30.02;;;;;;;10.83;67.07;100876.81;5039821;27;102450;-48
2022/02/21 07:43:49;;;;;;;48.63;29.45;;;;;;;10.83;66.89;100876.81;5042727;27;102579;-48
2022/02/21 07:46:15;;;;;;;39.55;26.08;;;;;;;10.85;66.92;100873.00;5043079;27;106215;-49
2022/02/21 07:48:43;;;;;;;38.15;25.15;;;;;;;10.86;67.38;100880.09;5021513;27;102710;-49
2022/02/21 07:51:09;;;;;;;86.18;45.22;;;;;;;10.85;67.13;100894.78;5022402;27;102435;-49
2022/02/21 07:53:35;;;;;;;91.05;47.17;;;;;;;10.85;66.91;100879.25;5044585;27;102506;-49
2022/02/21 07:56:02;;;;;;;62.33;34.53;;;;;;;10.88;66.84;100875.19;5041245;27;104107;-49
2022/02/21 07:58:28;;;;;;;54.75;29.15;;;;;;;10.89;66.84;100863.19;5037220;27;102089;-49
2022/02/21 08:00:54;;;;;;;48.42;27.55;;;;;;;10.87;66.98;100860.75;5021425;27;102665;-49
2022/02/21 08:03:20;;;;;;;40.95;24.60;;;;;;;10.90;66.78;100859.41;5055062;27;102881;-48
2022/02/21 08:05:48;;;;;;;45.72;24.55;;;;;;;10.90;66.92;100848.50;5048146;27;103930;-49
2022/02/21 08:08:15;;;;;;;38.25;23.95;;;;;;;10.91;67.15;100855.59;5022224;27;103397;-48
2022/02/21 08:10:41;;;;;;;39.58;24.58;;;;;;;10.90;66.81;100846.59;5029172;27;102580;-48
2022/02/21 08:13:07;;;;;;;38.47;23.23;;;;;;;10.91;66.57;100841.97;5021508;27;102850;-49
2022/02/21 08:15:33;;;;;;;40.90;24.02;;;;;;;10.91;66.65;100839.25;5026994;27;104104;-49
2022/02/21 08:18:00;;;;;;;38.25;24.15;;;;;;;10.93;66.61;100837.09;5026895;27;103336;-49
2022/02/21 08:20:26;;;;;;;39.13;22.58;;;;;;;10.92;66.95;100828.06;5026611;27;102530;-50
2022/02/21 08:22:54;;;;;;;38.92;23.10;;;;;;;10.93;66.75;100818.03;5026486;27;103600;-48
2022/02/21 08:25:21;;;;;;;51.20;31.35;;;;;;;10.94;66.70;100816.94;5028183;27;104012;-49
2022/02/21 08:27:47;;;;;;;42.55;25.70;;;;;;;10.95;66.49;100810.38;5025653;27;102202;-49
2022/02/21 08:30:16;;;;;;;36.50;23.38;;;;;;;10.95;66.56;100819.38;5026418;27;102711;-49
2022/02/21 08:32:43;;;;;;;37.17;23.05;;;;;;;10.95;66.51;100811.19;5029191;27;102594;-49
2022/02/21 08:35:10;;;;;;;46.47;26.10;;;;;;;10.97;66.53;100810.94;5024416;27;104002;-49
2022/02/21 08:37:38;;;;;;;46.83;27.30;;;;;;;10.97;66.50;100794.59;5026474;27;102228;-48
2022/02/21 08:40:09;;;;;;;40.47;25.75;;;;;;;10.97;66.61;100795.41;5021763;27;102535;-49
2022/02/21 08:42:36;;;;;;;36.85;21.52;;;;;;;10.98;66.09;100801.69;5031754;27;102680;-50
2022/02/21 08:45:03;;;;;;;31.52;21.83;;;;;;;10.98;66.04;100797.03;5045611;27;103860;-49
2022/02/21 08:47:30;;;;;;;41.17;26.40;;;;;;;10.99;65.91;100786.97;5041067;27;102115;-48
2022/02/21 08:49:56;;;;;;;35.78;23.50;;;;;;;10.99;66.13;100795.94;5044760;27;102776;-48
2022/02/21 08:52:22;;;;;;;34.53;19.23;;;;;;;10.98;66.01;100783.44;5033733;27;102734;-48
2022/02/21 08:54:48;;;;;;;33.17;20.20;;;;;;;11.00;66.04;100775.00;5022100;27;104051;-49
2022/02/21 08:57:16;;;;;;;32.22;21.90;;;;;;;11.00;65.93;100770.38;5010703;27;102718;-49
2022/02/21 08:59:43;;;;;;;36.38;22.77;;;;;;;11.00;66.05;100761.38;5007196;27;104552;-48
2022/02/21 09:02:10;;;;;;;30.20;18.30;;;;;;;11.01;65.87;100773.91;5013302;27;102295;-48
2022/02/21 09:04:37;;;;;;;33.38;20.13;;;;;;;11.00;65.87;100764.94;5008853;27;104299;-50
2022/02/21 09:07:03;;;;;;;31.00;18.67;;;;;;;11.02;65.52;100753.75;5004797;27;102663;-49
2022/02/21 09:09:30;;;;;;;30.52;18.58;;;;;;;11.02;65.37;100751.03;5033697;27;104462;-48
2022/02/21 09:11:56;;;;;;;34.55;20.35;;;;;;;11.02;65.99;100749.13;5044553;27;102328;-49
2022/02/21 09:14:23;;;;;;;29.10;19.27;;;;;;;11.03;65.61;100755.38;5043944;27;103963;-48
2022/02/21 09:16:50;;;;;;;33.00;20.02;;;;;;;11.05;65.58;100755.94;5044283;27;102179;-49
2022/02/21 09:19:16;;;;;;;34.83;20.40;;;;;;;11.04;65.96;100752.38;5033772;27;102776;-49
2022/02/21 09:21:42;;;;;;;31.63;19.02;;;;;;;11.06;65.53;100763.00;5035624;27;102467;-49
2022/02/21 09:24:08;;;;;;;29.50;18.55;;;;;;;11.06;65.80;100757.56;5036285;27;103886;-49
2022/02/21 09:26:35;;;;;;;30.23;18.40;;;;;;;11.07;65.67;100772.78;5017899;27;102471;-48
2022/02/21 09:29:01;;;;;;;29.45;17.02;;;;;;;11.07;65.54;100764.63;5027326;27;102667;-48
2022/02/21 09:31:29;;;;;;;27.20;16.05;;;;;;;11.07;65.09;100761.91;5027525;27;102542;-48
2022/02/21 09:33:55;;;;;;;23.73;16.27;;;;;;;11.08;64.88;100758.09;5023223;27;103864;-49
2022/02/21 09:36:22;;;;;;;34.08;17.67;;;;;;;11.09;64.81;100748.84;5022693;27;102620;-48
2022/02/21 09:38:48;;;;;;;26.55;16.90;;;;;;;11.08;64.86;100747.22;5023427;27;104260;-49
2022/02/21 09:41:15;;;;;;;27.70;17.95;;;;;;;11.08;64.84;100741.75;5021614;27;102844;-48
2022/02/21 09:43:42;;;;;;;24.15;15.32;;;;;;;11.09;64.94;100737.94;5015786;27;103906;-48
2022/02/21 09:46:12;;;;;;;26.70;16.33;;;;;;;11.09;64.37;100732.50;5024613;27;102477;-49
2022/02/21 09:48:40;;;;;;;23.58;14.52;;;;;;;11.09;64.57;100729.78;5024859;27;102760;-53
2022/02/21 09:51:08;;;;;;;29.93;16.97;;;;;;;11.09;64.34;100731.69;5030242;27;102392;-48
2022/02/21 09:53:36;;;;;;;26.80;16.67;;;;;;;11.09;64.35;100720.78;5036335;27;103838;-49
2022/02/21 09:56:04;;;;;;;31.25;16.75;;;;;;;11.08;64.55;100706.38;5025556;27;102981;-49
2022/02/21 09:58:31;;;;;;;26.73;15.85;;;;;;;11.09;64.21;100712.63;5037511;27;102536;-49
2022/02/21 10:00:58;;;;;;;24.38;16.20;;;;;;;11.09;64.95;100707.97;5044544;27;103803;-49
2022/02/21 10:03:43;;;;;;;24.70;15.82;;;;;;;11.08;64.96;100700.91;5028632;27;104040;-49
2022/02/21 10:06:18;;;;;;;25.70;15.85;;;;;;;11.09;64.42;100699.81;5021657;27;102369;-49
2022/02/21 10:09:03;;;;;;;24.17;14.25;;;;;;;11.09;65.21;100688.91;5033639;27;102515;-48
2022/02/21 10:11:32;;;;;;;24.25;15.25;;;;;;;11.09;63.92;100685.38;5026626;27;103177;-49
2022/02/21 10:14:00;;;;;;;25.17;14.27;;;;;;;11.09;64.45;100678.03;5045040;27;104155;-48
2022/02/21 10:16:38;;;;;;;25.02;13.70;;;;;;;11.09;64.21;100671.75;5020954;27;102172;-49
2022/02/21 10:19:13;;;;;;;22.80;14.05;;;;;;;11.08;64.19;100662.78;5023116;27;102117;-48
2022/02/21 10:21:47;;;;;;;20.63;13.13;;;;;;;11.08;64.18;100660.06;5025353;27;102533;-48
2022/02/21 10:24:15;;;;;;;21.02;13.10;;;;;;;11.08;63.46;100657.34;5041617;27;103403;-48
2022/02/21 10:26:42;;;;;;;19.73;11.90;;;;;;;11.08;63.64;100665.50;5042716;27;103409;-49
2022/02/21 10:29:10;;;;;;;19.05;12.80;;;;;;;11.07;63.48;100658.41;5042674;27;102715;-50
2022/02/21 10:31:36;;;;;;;23.83;13.60;;;;;;;11.07;63.58;100658.41;5045701;27;103609;-48
2022/02/21 10:34:05;;;;;;;33.90;20.52;;;;;;;11.07;63.38;100658.41;5040213;27;103966;-49
2022/02/21 10:36:34;;;;;;;60.05;36.20;;;;;;;11.07;63.88;100652.97;5034686;27;103268;-50
2022/02/21 10:39:03;;;;;;;91.80;38.35;;;;;;;11.18;63.84;100649.16;5025992;27;103029;-48
2022/02/21 10:41:45;;;;;;;52.22;29.58;;;;;;;11.09;64.06;100639.91;5026485;27;102857;-49
2022/02/21 10:44:14;;;;;;;53.67;29.27;;;;;;;11.07;63.82;100631.16;5023675;27;103957;-49
2022/02/21 10:46:40;;;;;;;49.60;26.73;;;;;;;11.07;63.94;100628.44;5036320;27;102438;-48
2022/02/21 10:49:11;;;;;;;40.40;21.13;;;;;;;11.07;63.76;100628.44;5044321;27;102392;-48
2022/02/21 10:51:45;;;;;;;30.17;16.23;;;;;;;11.05;63.69;100622.47;5044868;27;102549;-50
2022/02/21 10:54:12;;;;;;;31.85;18.45;;;;;;;11.05;63.68;100617.03;5038356;27;103982;-49
2022/02/21 10:56:42;;;;;;;27.00;16.77;;;;;;;11.04;63.45;100621.66;5031047;27;102730;-48
2022/02/21 10:59:19;;;;;;;23.65;14.88;;;;;;;11.04;63.25;100604.53;5028966;27;102560;-49
2022/02/21 11:01:46;;;;;;;25.60;14.43;;;;;;;11.03;63.37;100609.16;5034240;27;102491;-48
2022/02/21 11:04:13;;;;;;;25.10;14.18;;;;;;;11.04;63.43;100599.06;5022599;27;103905;-48